createdAt,value
2022-12-19T00:01:32.573Z,-2.95
2022-12-19T00:04:00.350Z,-2.95
2022-12-19T00:06:27.592Z,-2.95
2022-12-19T00:08:54.519Z,-2.98
2022-12-19T00:11:22.702Z,-3.11
2022-12-19T00:13:49.285Z,-3.19
2022-12-19T00:16:19.036Z,-3.21
2022-12-19T00:18:46.345Z,-3.20
2022-12-19T00:21:14.029Z,-3.12
2022-12-19T00:23:40.591Z,-3.06
2022-12-19T00:26:08.426Z,-3.02
2022-12-19T00:28:34.912Z,-2.96
2022-12-19T00:31:03.023Z,-2.93
2022-12-19T00:33:30.901Z,-2.95
2022-12-19T00:35:59.715Z,-2.99
2022-12-19T00:38:26.337Z,-3.06
2022-12-19T00:40:52.856Z,-3.06
2022-12-19T00:43:21.479Z,-3.01
2022-12-19T00:45:48.076Z,-2.91
2022-12-19T00:48:14.714Z,-2.85
2022-12-19T00:50:47.110Z,-2.79
2022-12-19T00:53:13.613Z,-2.76
2022-12-19T00:55:40.164Z,-2.73
2022-12-19T00:58:06.681Z,-2.73
2022-12-19T01:00:33.277Z,-2.70
2022-12-19T01:02:59.871Z,-2.68
2022-12-19T01:05:29.279Z,-2.64
2022-12-19T01:07:57.151Z,-2.65
2022-12-19T01:10:23.634Z,-2.65
2022-12-19T01:12:50.133Z,-2.63
2022-12-19T01:15:20.377Z,-2.62
2022-12-19T01:17:47.367Z,-2.60
2022-12-19T01:20:14.772Z,-2.58
2022-12-19T01:22:41.284Z,-2.56
2022-12-19T01:25:09.271Z,-2.56
2022-12-19T01:27:38.892Z,-2.56
2022-12-19T01:30:06.169Z,-2.54
2022-12-19T01:32:33.869Z,-2.53
2022-12-19T01:35:01.080Z,-2.54
2022-12-19T01:37:27.542Z,-2.53
2022-12-19T01:39:57.543Z,-2.53
2022-12-19T01:42:25.353Z,-2.54
2022-12-19T01:45:03.534Z,-2.56
2022-12-19T01:47:30.159Z,-2.57
2022-12-19T01:49:56.708Z,-2.55
2022-12-19T01:52:23.932Z,-2.54
2022-12-19T01:54:50.600Z,-2.54
2022-12-19T01:57:18.252Z,-2.55
2022-12-19T01:59:48.414Z,-2.55
2022-12-19T02:02:19.006Z,-2.55
2022-12-19T02:04:46.142Z,-2.54
2022-12-19T02:07:16.125Z,-2.53
2022-12-19T02:09:44.873Z,-2.55
2022-12-19T02:12:12.660Z,-2.58
2022-12-19T02:14:39.578Z,-2.61
2022-12-19T02:17:10.071Z,-2.63
2022-12-19T02:19:50.698Z,-2.64
2022-12-19T02:22:22.690Z,-2.66
2022-12-19T02:25:15.554Z,-2.66
2022-12-19T02:27:57.010Z,-2.66
2022-12-19T02:30:41.312Z,-2.68
2022-12-19T02:33:14.156Z,-2.73
2022-12-19T02:35:42.861Z,-2.71
2022-12-19T02:38:15.445Z,-2.70
2022-12-19T02:40:44.954Z,-2.68
2022-12-19T02:43:15.775Z,-2.66
2022-12-19T02:45:44.935Z,-2.60
2022-12-19T02:48:13.048Z,-2.59
2022-12-19T02:50:44.519Z,-2.62
2022-12-19T02:53:14.856Z,-2.61
2022-12-19T02:55:44.080Z,-2.64
2022-12-19T02:58:21.824Z,-2.65
2022-12-19T03:00:54.792Z,-2.63
2022-12-19T03:03:23.317Z,-2.65
2022-12-19T03:06:00.960Z,-2.68
2022-12-19T03:08:29.082Z,-2.75
2022-12-19T03:10:58.579Z,-2.85
2022-12-19T03:13:27.449Z,-2.89
2022-12-19T03:15:56.125Z,-2.90
2022-12-19T03:18:22.733Z,-2.91
2022-12-19T03:20:52.630Z,-2.97
2022-12-19T03:23:19.295Z,-3.00
2022-12-19T03:25:48.618Z,-3.02
2022-12-19T03:28:19.228Z,-3.01
2022-12-19T03:30:46.675Z,-3.06
2022-12-19T03:33:16.945Z,-3.10
2022-12-19T03:35:43.683Z,-3.14
2022-12-19T03:38:10.965Z,-3.15
2022-12-19T03:40:38.673Z,-3.14
2022-12-19T03:43:09.758Z,-3.14
2022-12-19T03:45:44.639Z,-3.11
2022-12-19T03:48:13.122Z,-3.02
2022-12-19T03:50:46.717Z,-2.91
2022-12-19T03:53:19.576Z,-2.82
2022-12-19T03:55:47.513Z,-2.79
2022-12-19T03:58:18.534Z,-2.72
2022-12-19T04:00:47.463Z,-2.65
2022-12-19T04:03:15.599Z,-2.58
2022-12-19T04:05:44.471Z,-2.55
2022-12-19T04:08:11.858Z,-2.51
2022-12-19T04:10:42.215Z,-2.45
2022-12-19T04:13:12.378Z,-2.42
2022-12-19T04:15:44.256Z,-2.44
2022-12-19T04:18:11.812Z,-2.45
2022-12-19T04:20:40.693Z,-2.39
2022-12-19T04:23:12.057Z,-2.33
2022-12-19T04:25:40.700Z,-2.27
2022-12-19T04:28:13.470Z,-2.26
2022-12-19T04:30:40.695Z,-2.26
2022-12-19T04:33:07.953Z,-2.27
2022-12-19T04:35:34.672Z,-2.25
2022-12-19T04:38:01.176Z,-2.26
2022-12-19T04:40:29.121Z,-2.26
2022-12-19T04:42:55.596Z,-2.22
2022-12-19T04:45:22.119Z,-2.18
2022-12-19T04:47:48.570Z,-2.14
2022-12-19T04:50:15.412Z,-2.12
2022-12-19T04:52:41.906Z,-2.10
2022-12-19T04:55:08.845Z,-2.06
2022-12-19T04:57:36.748Z,-2.04
2022-12-19T05:00:05.043Z,-1.98
2022-12-19T05:02:32.221Z,-1.95
2022-12-19T05:04:58.898Z,-1.92
2022-12-19T05:07:25.446Z,-1.91
2022-12-19T05:09:51.911Z,-1.85
2022-12-19T05:12:18.417Z,-1.81
2022-12-19T05:14:46.231Z,-1.79
2022-12-19T05:17:12.772Z,-1.75
2022-12-19T05:19:39.251Z,-1.73
2022-12-19T05:22:05.841Z,-1.75
2022-12-19T05:24:32.594Z,-1.74
2022-12-19T05:26:59.407Z,-1.72
2022-12-19T05:29:25.950Z,-1.68
2022-12-19T05:31:53.808Z,-1.65
2022-12-19T05:34:20.344Z,-1.66
2022-12-19T05:36:46.841Z,-1.64
2022-12-19T05:39:13.368Z,-1.66
2022-12-19T05:41:39.838Z,-1.63
2022-12-19T05:44:09.270Z,-1.57
2022-12-19T05:46:35.981Z,-1.53
2022-12-19T05:49:03.953Z,-1.50
2022-12-19T05:51:31.291Z,-1.50
2022-12-19T05:53:57.816Z,-1.51
2022-12-19T05:56:24.301Z,-1.47
2022-12-19T05:58:50.910Z,-1.44
2022-12-19T06:01:18.467Z,-1.42
2022-12-19T06:03:45.164Z,-1.41
2022-12-19T06:06:13.901Z,-1.39
2022-12-19T06:08:41.340Z,-1.41
2022-12-19T06:11:08.328Z,-1.44
2022-12-19T06:13:35.807Z,-1.48
2022-12-19T06:16:04.305Z,-1.48
2022-12-19T06:18:30.969Z,-1.47
2022-12-19T06:20:58.601Z,-1.44
2022-12-19T06:23:26.645Z,-1.44
2022-12-19T06:25:55.463Z,-1.42
2022-12-19T06:28:21.956Z,-1.43
2022-12-19T06:30:48.504Z,-1.44
2022-12-19T06:33:15.102Z,-1.46
2022-12-19T06:35:41.656Z,-1.51
2022-12-19T06:38:08.162Z,-1.56
2022-12-19T06:40:58.671Z,-1.56
2022-12-19T06:46:53.950Z,-1.56
2022-12-19T06:49:20.500Z,-1.57
2022-12-19T06:51:46.962Z,-1.60
2022-12-19T06:54:14.084Z,-1.65
2022-12-19T06:56:42.610Z,-1.65
2022-12-19T06:59:11.562Z,-1.64
2022-12-19T07:01:44.733Z,-1.61
2022-12-19T07:04:13.933Z,-1.59
2022-12-19T07:06:44.677Z,-1.61
2022-12-19T07:09:13.885Z,-1.62
2022-12-19T07:11:41.696Z,-1.60
2022-12-19T07:14:08.178Z,-1.58
2022-12-19T07:16:37.353Z,-1.55
2022-12-19T07:19:04.487Z,-1.53
2022-12-19T07:21:31.111Z,-1.51
2022-12-19T07:23:58.496Z,-1.48
2022-12-19T07:26:25.019Z,-1.45
2022-12-19T07:28:52.986Z,-1.43
2022-12-19T07:31:19.529Z,-1.40
2022-12-19T07:33:46.108Z,-1.36
2022-12-19T07:36:12.576Z,-1.33
2022-12-19T07:38:39.051Z,-1.30
2022-12-19T07:41:05.766Z,-1.28
2022-12-19T07:43:32.245Z,-1.25
2022-12-19T07:46:00.175Z,-1.26
2022-12-19T07:48:28.717Z,-1.23
2022-12-19T07:50:55.237Z,-1.22
2022-12-19T07:53:21.776Z,-1.15
2022-12-19T07:55:50.228Z,-1.08
2022-12-19T07:58:16.776Z,-1.01
2022-12-19T08:00:43.299Z,-0.97
2022-12-19T08:03:11.451Z,-0.91
2022-12-19T08:05:38.299Z,-0.84
2022-12-19T08:08:05.034Z,-0.80
2022-12-19T08:10:31.803Z,-0.74
2022-12-19T08:12:58.307Z,-0.68
2022-12-19T08:15:25.042Z,-0.61
2022-12-19T08:17:51.693Z,-0.55
2022-12-19T08:20:19.629Z,-0.49
2022-12-19T08:22:46.145Z,-0.42
2022-12-19T08:25:13.311Z,-0.33
2022-12-19T08:27:39.835Z,-0.24
2022-12-19T08:30:07.164Z,-0.16
2022-12-19T08:32:35.530Z,-0.06
2022-12-19T08:35:02.039Z,0.04
2022-12-19T08:37:29.865Z,0.11
2022-12-19T08:39:56.368Z,0.17
2022-12-19T08:42:22.838Z,0.23
2022-12-19T08:44:49.352Z,0.33
2022-12-19T08:47:15.921Z,0.42
2022-12-19T08:49:42.466Z,0.55
2022-12-19T08:52:09.510Z,0.64
2022-12-19T08:54:37.834Z,0.75
2022-12-19T08:57:04.459Z,0.83
2022-12-19T08:59:32.115Z,0.89
2022-12-19T09:01:59.565Z,0.93
2022-12-19T09:05:57.342Z,1.02
2022-12-19T09:07:15.658Z,1.12
2022-12-19T09:09:44.001Z,1.22
2022-12-19T09:12:11.837Z,1.27
2022-12-19T09:14:38.389Z,1.27
2022-12-19T09:17:05.076Z,1.20
2022-12-19T09:19:31.907Z,1.15
2022-12-19T09:21:58.498Z,1.13
2022-12-19T09:24:25.166Z,1.12
2022-12-19T09:26:53.159Z,1.08
2022-12-19T09:29:21.784Z,1.09
2022-12-19T09:31:53.885Z,1.11
2022-12-19T09:34:24.387Z,1.17
2022-12-19T09:36:59.934Z,1.25
2022-12-19T09:39:26.466Z,1.32
2022-12-19T09:42:06.302Z,1.40
2022-12-19T09:44:41.354Z,1.50
2022-12-19T09:47:13.278Z,1.60
2022-12-19T09:49:42.690Z,1.70
2022-12-19T09:52:13.570Z,1.82
2022-12-19T09:54:42.478Z,1.92
2022-12-19T09:57:13.953Z,2.02
2022-12-19T09:59:49.436Z,2.11
2022-12-19T10:02:26.819Z,2.21
2022-12-19T10:05:05.960Z,2.34
2022-12-19T10:08:07.240Z,2.44
2022-12-19T10:12:34.622Z,2.55
2022-12-19T10:13:29.609Z,2.69
2022-12-19T10:16:01.106Z,2.83
2022-12-19T10:18:34.810Z,3.01
2022-12-19T10:21:04.459Z,3.14
2022-12-19T10:23:56.612Z,3.23
2022-12-19T10:26:29.993Z,3.29
2022-12-19T10:29:10.855Z,3.36
2022-12-19T10:31:40.608Z,3.46
2022-12-19T10:34:16.806Z,3.64
2022-12-19T10:39:33.726Z,4.01
2022-12-19T10:42:07.854Z,3.99
2022-12-19T10:44:38.450Z,3.94
2022-12-19T10:47:05.029Z,3.94
2022-12-19T10:49:31.709Z,4.03
2022-12-19T10:51:59.192Z,4.25
2022-12-19T10:54:33.344Z,4.45
2022-12-19T10:57:18.125Z,4.66
2022-12-19T10:59:53.765Z,4.79
2022-12-19T11:02:29.334Z,5.06
2022-12-19T11:04:56.188Z,5.32
2022-12-19T11:07:22.794Z,5.50
2022-12-19T11:10:09.174Z,5.91
2022-12-19T11:16:45.531Z,6.33
2022-12-19T11:19:14.035Z,6.44
2022-12-19T11:27:03.923Z,6.44
2022-12-19T11:29:41.736Z,6.36
2022-12-19T11:29:42.002Z,6.46
2022-12-19T11:30:48.174Z,6.14
2022-12-19T11:32:48.833Z,5.71
2022-12-19T11:35:17.937Z,5.61
2022-12-19T11:37:47.940Z,5.58
2022-12-19T11:40:17.260Z,5.56
2022-12-19T11:43:04.388Z,5.54
2022-12-19T11:45:40.902Z,5.55
2022-12-19T11:48:11.897Z,5.57
2022-12-19T11:50:45.044Z,5.56
2022-12-19T11:53:19.108Z,5.47
2022-12-19T11:55:51.110Z,5.33
2022-12-19T11:58:17.616Z,5.20
2022-12-19T12:00:49.771Z,5.14
2022-12-19T12:03:25.903Z,5.10
2022-12-19T12:05:54.514Z,5.07
2022-12-19T12:11:08.754Z,5.10
2022-12-19T12:20:29.539Z,5.18
2022-12-19T12:26:49.070Z,5.31
2022-12-19T12:31:09.270Z,5.39
2022-12-19T12:31:23.775Z,5.42
2022-12-19T12:31:31.784Z,5.45
2022-12-19T12:31:45.835Z,5.31
2022-12-19T12:32:04.667Z,5.36
2022-12-19T12:35:56.814Z,5.41
2022-12-19T12:38:18.760Z,5.56
2022-12-19T12:40:40.454Z,5.63
2022-12-19T12:43:15.681Z,5.63
2022-12-19T12:45:44.934Z,5.62
2022-12-19T12:48:18.243Z,5.58
2022-12-19T12:50:53.143Z,5.54
2022-12-19T12:53:24.182Z,5.47
2022-12-19T12:55:51.904Z,5.42
2022-12-19T12:58:37.225Z,5.33
2022-12-19T13:01:08.557Z,5.20
2022-12-19T13:03:35.386Z,5.07
2022-12-19T13:06:05.504Z,4.96
2022-12-19T13:08:35.202Z,4.89
2022-12-19T13:11:02.702Z,4.83
2022-12-19T13:13:46.887Z,4.78
2022-12-19T13:16:28.294Z,4.74
2022-12-19T13:19:04.125Z,4.72
2022-12-19T13:21:57.661Z,4.68
2022-12-19T13:24:25.603Z,4.64
2022-12-19T13:26:52.453Z,4.60
2022-12-19T13:29:39.978Z,4.58
2022-12-19T13:32:10.857Z,4.53
2022-12-19T13:34:37.378Z,4.48
2022-12-19T13:39:56.782Z,4.45
2022-12-19T13:40:30.662Z,4.40
2022-12-19T13:43:21.107Z,4.39
2022-12-19T13:45:49.755Z,4.38
2022-12-19T13:48:18.749Z,4.37
2022-12-19T13:50:48.165Z,4.34
2022-12-19T13:53:16.826Z,4.32
2022-12-19T13:55:44.786Z,4.33
2022-12-19T13:58:21.849Z,4.33
2022-12-19T14:00:58.601Z,4.30
2022-12-19T14:03:32.792Z,4.25
2022-12-19T14:06:18.206Z,4.15
2022-12-19T14:08:46.737Z,4.03
2022-12-19T14:11:45.065Z,3.91
2022-12-19T14:14:27.505Z,3.83
2022-12-19T14:16:55.534Z,3.79
2022-12-19T14:19:22.944Z,3.75
2022-12-19T14:22:09.800Z,3.76
2022-12-19T14:24:36.013Z,3.73
2022-12-19T14:28:24.279Z,3.72
2022-12-19T14:30:27.693Z,3.70
2022-12-19T14:33:53.165Z,3.67
2022-12-19T14:36:06.398Z,3.67
2022-12-19T14:39:23.794Z,3.68
2022-12-19T14:41:37.829Z,3.65
2022-12-19T14:54:04.474Z,3.58
2022-12-19T14:54:08.205Z,3.53
2022-12-19T14:54:12.267Z,3.47
2022-12-19T14:54:25.524Z,3.43
2022-12-19T14:56:08.396Z,3.36
2022-12-19T14:58:54.201Z,3.30
2022-12-19T15:01:10.012Z,3.25
2022-12-19T15:03:44.695Z,3.22
2022-12-19T15:07:08.848Z,3.18
2022-12-19T15:11:05.553Z,3.16
2022-12-19T15:14:49.063Z,3.12
2022-12-19T15:15:18.450Z,3.03
2022-12-19T15:17:47.547Z,2.95
2022-12-19T15:20:14.215Z,2.88
2022-12-19T15:22:40.691Z,2.80
2022-12-19T15:25:17.590Z,2.74
2022-12-19T15:27:53.950Z,2.70
2022-12-19T15:30:21.372Z,2.68
2022-12-19T15:32:49.177Z,2.65
2022-12-19T15:35:16.733Z,2.63
2022-12-19T15:37:43.542Z,2.58
2022-12-19T15:40:13.982Z,2.49
2022-12-19T15:42:40.662Z,2.39
2022-12-19T15:45:07.972Z,2.29
2022-12-19T15:47:35.490Z,2.26
2022-12-19T15:50:14.138Z,2.22
2022-12-19T15:52:40.622Z,2.16
2022-12-19T15:55:08.863Z,2.09
2022-12-19T15:57:38.446Z,2.10
2022-12-19T16:00:07.499Z,2.09
2022-12-19T16:03:20.686Z,2.06
2022-12-19T16:05:23.209Z,2.04
2022-12-19T16:07:49.867Z,1.98
2022-12-19T16:10:16.726Z,1.91
2022-12-19T16:12:45.240Z,1.86
2022-12-19T16:15:17.127Z,1.80
2022-12-19T16:17:43.633Z,1.75
2022-12-19T16:20:21.054Z,1.75
2022-12-19T16:22:49.333Z,1.77
2022-12-19T16:25:15.860Z,1.77
2022-12-19T16:27:43.142Z,1.77
2022-12-19T16:30:18.906Z,1.73
2022-12-19T16:32:45.969Z,1.68
2022-12-19T16:35:15.509Z,1.58
2022-12-19T16:37:42.490Z,1.53
2022-12-19T16:40:14.032Z,1.50
2022-12-19T16:42:42.177Z,1.48
2022-12-19T16:45:15.749Z,1.46
2022-12-19T16:47:42.245Z,1.47
2022-12-19T16:50:12.526Z,1.50
2022-12-19T16:52:42.457Z,1.50
2022-12-19T16:55:09.756Z,1.49
2022-12-19T16:57:36.271Z,1.44
2022-12-19T17:00:04.489Z,1.40
2022-12-19T17:02:40.661Z,1.36
2022-12-19T17:05:14.014Z,1.33
2022-12-19T17:07:40.507Z,1.34
2022-12-19T17:10:07.342Z,1.34
2022-12-19T17:12:33.859Z,1.34
2022-12-19T17:15:00.404Z,1.37
2022-12-19T17:17:28.364Z,1.38
2022-12-19T17:19:54.834Z,1.41
2022-12-19T17:22:21.470Z,1.39
2022-12-19T17:24:49.020Z,1.38
2022-12-19T17:27:17.389Z,1.36
2022-12-19T17:29:44.460Z,1.36
2022-12-19T17:32:17.022Z,1.37
2022-12-19T17:34:49.515Z,1.37
2022-12-19T17:37:16.943Z,1.38
2022-12-19T17:39:43.440Z,1.37
2022-12-19T17:42:13.713Z,1.38
2022-12-19T17:44:40.192Z,1.38
2022-12-19T17:47:06.741Z,1.38
2022-12-19T17:49:33.522Z,1.41
2022-12-19T17:52:01.411Z,1.41
2022-12-19T17:54:27.967Z,1.43
2022-12-19T17:56:55.318Z,1.45
2022-12-19T17:59:21.863Z,1.46
2022-12-19T18:01:48.625Z,1.50
2022-12-19T18:04:16.939Z,1.56
2022-12-19T18:06:43.687Z,1.59
2022-12-19T18:09:16.663Z,1.60
2022-12-19T18:11:44.632Z,1.65
2022-12-19T18:14:11.397Z,1.72
2022-12-19T18:16:38.083Z,1.76
2022-12-19T18:19:05.231Z,1.83
2022-12-19T18:21:31.823Z,1.85
2022-12-19T18:23:58.356Z,1.87
2022-12-19T18:26:25.098Z,1.88
2022-12-19T18:28:54.409Z,1.89
2022-12-19T18:31:23.180Z,1.91
2022-12-19T18:33:50.208Z,1.92
2022-12-19T18:36:19.012Z,1.93
2022-12-19T18:38:45.922Z,1.94
2022-12-19T18:41:12.546Z,1.97
2022-12-19T18:43:39.121Z,2.01
2022-12-19T18:46:07.145Z,2.06
2022-12-19T18:48:36.382Z,2.11
2022-12-19T18:51:03.883Z,2.08
2022-12-19T18:53:35.649Z,2.08
2022-12-19T18:56:03.546Z,2.05
2022-12-19T18:58:30.059Z,2.04
2022-12-19T19:00:59.427Z,2.05
2022-12-19T19:03:29.488Z,2.03
2022-12-19T19:05:56.287Z,2.00
2022-12-19T19:08:23.513Z,1.97
2022-12-19T19:11:00.148Z,1.97
2022-12-19T19:13:27.345Z,1.99
2022-12-19T19:15:55.222Z,1.99
2022-12-19T19:18:22.951Z,1.96
2022-12-19T19:20:55.705Z,1.92
2022-12-19T19:23:29.495Z,1.89
2022-12-19T19:25:56.027Z,1.83
2022-12-19T19:28:22.541Z,1.80
2022-12-19T19:30:50.949Z,1.79
2022-12-19T19:33:20.089Z,1.77
2022-12-19T19:35:48.057Z,1.76
2022-12-19T19:38:16.413Z,1.74
2022-12-19T19:40:43.331Z,1.70
2022-12-19T19:43:09.882Z,1.62
2022-12-19T19:45:42.787Z,1.60
2022-12-19T19:48:10.019Z,1.59
2022-12-19T19:50:36.605Z,1.55
2022-12-19T19:53:03.133Z,1.51
2022-12-19T19:55:31.405Z,1.47
2022-12-19T19:57:57.925Z,1.42
2022-12-19T20:00:24.417Z,1.38
2022-12-19T20:02:51.229Z,1.38
2022-12-19T20:05:18.389Z,1.39
2022-12-19T20:07:45.163Z,1.38
2022-12-19T20:10:12.285Z,1.35
2022-12-19T20:12:40.218Z,1.29
2022-12-19T20:15:07.669Z,1.25
2022-12-19T20:17:34.234Z,1.23
2022-12-19T20:20:00.776Z,1.19
2022-12-19T20:22:28.399Z,1.14
2022-12-19T20:24:55.053Z,1.13
2022-12-19T20:27:21.591Z,1.11
2022-12-19T20:29:49.726Z,1.08
2022-12-19T20:32:16.243Z,1.06
2022-12-19T20:34:42.763Z,1.06
2022-12-19T20:37:09.285Z,1.08
2022-12-19T20:39:35.937Z,1.08
2022-12-19T20:42:02.419Z,1.09
2022-12-19T20:44:29.242Z,1.07
2022-12-19T20:46:57.845Z,1.03
2022-12-19T20:49:24.380Z,1.01
2022-12-19T20:51:50.924Z,1.00
2022-12-19T20:54:18.237Z,1.03
2022-12-19T20:56:45.041Z,1.05
2022-12-19T20:59:11.711Z,1.07
2022-12-19T21:01:38.356Z,1.08
2022-12-19T21:04:06.558Z,1.11
2022-12-19T21:06:33.503Z,1.13
2022-12-19T21:09:00.160Z,1.16
2022-12-19T21:11:26.818Z,1.18
2022-12-19T21:13:53.409Z,1.23
2022-12-19T21:16:21.435Z,1.24
2022-12-19T21:18:48.573Z,1.22
2022-12-19T21:21:17.879Z,1.23
2022-12-19T21:23:44.804Z,1.25
2022-12-19T21:26:11.695Z,1.26
2022-12-19T21:28:38.378Z,1.25
2022-12-19T21:31:06.306Z,1.25
2022-12-19T21:33:33.462Z,1.25
2022-12-19T21:36:05.262Z,1.24
2022-12-19T21:38:33.136Z,1.26
2022-12-19T21:41:01.671Z,1.28
2022-12-19T21:43:29.877Z,1.30
2022-12-19T21:46:03.667Z,1.31
2022-12-19T21:48:33.913Z,1.34
2022-12-19T21:51:00.420Z,1.33
2022-12-19T21:53:26.880Z,1.33
2022-12-19T21:56:01.250Z,1.29
2022-12-19T21:58:27.756Z,1.25
2022-12-19T22:01:07.878Z,1.23
2022-12-19T22:03:35.293Z,1.21
2022-12-19T22:06:01.944Z,1.16
2022-12-19T22:08:28.650Z,1.14
2022-12-19T22:10:56.741Z,1.12
2022-12-19T22:13:23.334Z,1.08
2022-12-19T22:15:52.199Z,1.07
2022-12-19T22:18:18.746Z,1.09
2022-12-19T22:20:45.392Z,1.08
2022-12-19T22:23:13.529Z,1.07
2022-12-19T22:25:40.381Z,1.06
2022-12-19T22:28:08.366Z,1.08
2022-12-19T22:30:35.206Z,1.10
2022-12-19T22:33:01.958Z,1.08
2022-12-19T22:35:28.479Z,1.05
2022-12-19T22:37:55.104Z,1.07
2022-12-19T22:40:21.587Z,1.08
2022-12-19T22:42:48.127Z,1.11
2022-12-19T22:45:16.032Z,1.11
2022-12-19T22:47:42.536Z,1.12
2022-12-19T22:50:10.516Z,1.08
2022-12-19T22:52:37.202Z,1.04
2022-12-19T22:55:04.139Z,1.04
2022-12-19T22:57:30.658Z,1.05
2022-12-19T22:59:57.158Z,1.05
2022-12-19T23:02:25.061Z,1.04
2022-12-19T23:04:51.649Z,1.03
2022-12-19T23:07:18.284Z,1.02
2022-12-19T23:09:44.744Z,1.03
2022-12-19T23:12:11.448Z,0.99
2022-12-19T23:14:37.934Z,0.98
2022-12-19T23:17:04.429Z,0.98
2022-12-19T23:19:32.310Z,0.99
2022-12-19T23:21:58.821Z,1.01
2022-12-19T23:24:25.331Z,1.03
2022-12-19T23:26:52.708Z,1.03
2022-12-19T23:29:19.297Z,1.02
2022-12-19T23:31:46.904Z,1.01
2022-12-19T23:34:13.958Z,1.02
2022-12-19T23:39:28.473Z,0.95
2022-12-19T23:41:54.943Z,0.94
2022-12-19T23:44:21.647Z,0.95
2022-12-19T23:46:48.202Z,0.94
2022-12-19T23:49:15.614Z,0.92
2022-12-19T23:51:43.440Z,0.92
2022-12-19T23:54:10.107Z,0.93
2022-12-19T23:56:36.880Z,0.95
2022-12-19T23:59:03.742Z,0.95
